ETHB

Buckeburg Airport

Germany
METAR ETHB 231320Z AUTO 08013KT 6000 // ////// 01/M08 Q1024 ///
Observed Flight Rules
Feb-23 @ 13:20 UTC (an hour ago)
Wind Visibility
80° at 13 knots 6,003 meters
Temperatures Readings
Current 1°C / 34°F
Dewpoint -8°C / 18°F
Humidity 51%
Altimeter 30.24" Hg
Pressure 1024 hPa
Elevation 78
METAR ETHB 231320Z AUTO 08013KT 6000 // ////// 01/M08 Q1024 ///
Observed Flight Rules
Feb-23 @ 13:20 UTC
(an hour ago)
Wind Visibility
80° at 13 knots 6,003 meters
Temperature Dewpoint
1°C / 34°F -8°C / 18°F
Humidity Altimeter Pressure
51% 30.24" Hg 1024 hPa